createdAt,value
2023-04-04T00:02:01.012Z,76.69
2023-04-04T00:04:28.204Z,76.37
2023-04-04T00:06:55.376Z,76.45
2023-04-04T00:09:22.823Z,76.47
2023-04-04T00:11:50.301Z,76.75
2023-04-04T00:14:17.342Z,77.49
2023-04-04T00:16:44.271Z,76.71
2023-04-04T00:19:14.431Z,76.78
2023-04-04T00:21:41.312Z,77.13
2023-04-04T00:24:08.609Z,76.88
2023-04-04T00:26:35.714Z,77.06
2023-04-04T00:29:02.749Z,76.32
2023-04-04T00:31:29.831Z,76.83
2023-04-04T00:33:56.675Z,77.48
2023-04-04T00:36:24.045Z,77.49
2023-04-04T00:38:51.118Z,77.98
2023-04-04T00:41:18.288Z,77.70
2023-04-04T00:43:45.572Z,76.77
2023-04-04T00:46:15.111Z,76.43
2023-04-04T00:48:43.307Z,76.47
2023-04-04T00:51:10.258Z,76.99
2023-04-04T00:53:38.286Z,76.95
2023-04-04T00:56:05.641Z,76.44
2023-04-04T00:58:32.691Z,76.22
2023-04-04T01:01:01.501Z,76.85
2023-04-04T01:03:29.512Z,76.31
2023-04-04T01:05:56.854Z,77.30
2023-04-04T01:08:27.238Z,76.97
2023-04-04T01:10:54.247Z,76.42
2023-04-04T01:13:21.980Z,77.13
2023-04-04T01:15:49.302Z,76.59
2023-04-04T01:18:20.566Z,76.88
2023-04-04T01:21:13.293Z,77.35
2023-04-04T01:24:05.229Z,78.15
2023-04-04T01:26:32.398Z,78.15
2023-04-04T01:29:00.124Z,78.55
2023-04-04T01:31:58.782Z,77.47
2023-04-04T01:34:47.286Z,78.14
2023-04-04T01:37:51.949Z,78.79
2023-04-04T01:40:25.942Z,78.22
2023-04-04T01:42:53.799Z,77.84
2023-04-04T01:45:24.597Z,78.49
2023-04-04T01:47:52.102Z,80.07
2023-04-04T01:50:20.505Z,79.13
2023-04-04T01:52:47.717Z,79.75
2023-04-04T01:55:14.724Z,79.89
2023-04-04T01:57:41.790Z,79.39
2023-04-04T02:00:09.420Z,79.23
2023-04-04T02:02:36.702Z,79.08
2023-04-04T02:05:04.193Z,78.90
2023-04-04T02:07:31.146Z,77.75
2023-04-04T02:09:58.653Z,78.88
2023-04-04T02:12:25.585Z,79.51
2023-04-04T02:14:53.613Z,78.68
2023-04-04T02:17:20.496Z,77.97
2023-04-04T02:19:47.366Z,78.79
2023-04-04T02:22:14.405Z,78.70
2023-04-04T02:24:44.437Z,79.03
2023-04-04T02:27:11.302Z,78.53
2023-04-04T02:29:38.179Z,79.26
2023-04-04T02:32:05.289Z,80.28
2023-04-04T02:34:32.815Z,81.21
2023-04-04T02:36:59.765Z,79.36
2023-04-04T02:39:27.093Z,78.39
2023-04-04T02:41:53.959Z,79.50
2023-04-04T02:44:20.899Z,79.73
2023-04-04T02:46:48.380Z,80.26
2023-04-04T02:49:15.502Z,80.26
2023-04-04T02:51:42.551Z,81.00
2023-04-04T02:54:10.092Z,82.99
2023-04-04T02:56:38.629Z,81.78
2023-04-04T02:59:05.867Z,80.76
2023-04-04T03:01:32.893Z,79.77
2023-04-04T03:04:00.002Z,79.68
2023-04-04T03:06:26.986Z,80.70
2023-04-04T03:08:53.874Z,81.71
2023-04-04T03:11:21.661Z,80.64
2023-04-04T03:13:51.149Z,80.79
2023-04-04T03:16:19.827Z,80.30
2023-04-04T03:18:47.066Z,79.30
2023-04-04T03:21:14.064Z,79.47
2023-04-04T03:23:42.771Z,82.83
2023-04-04T03:26:09.783Z,86.63
2023-04-04T03:28:38.116Z,87.64
2023-04-04T03:31:06.273Z,88.74
2023-04-04T03:33:37.867Z,90.50
2023-04-04T03:36:14.063Z,91.72
2023-04-04T03:38:41.336Z,90.54
2023-04-04T03:41:09.338Z,91.00
2023-04-04T03:43:36.262Z,92.48
2023-04-04T03:46:05.811Z,92.03
2023-04-04T03:48:33.695Z,93.98
2023-04-04T03:51:03.448Z,93.11
2023-04-04T03:53:30.579Z,93.32
2023-04-04T03:55:57.843Z,94.08
2023-04-04T03:58:24.805Z,94.05
2023-04-04T04:00:51.761Z,93.25
2023-04-04T04:03:18.740Z,93.11
2023-04-04T04:05:46.195Z,93.34
2023-04-04T04:08:13.632Z,94.32
2023-04-04T04:10:40.750Z,94.67
2023-04-04T04:13:07.798Z,94.64
2023-04-04T04:15:34.752Z,95.41
2023-04-04T04:18:01.750Z,95.94
2023-04-04T04:20:28.672Z,97.53
2023-04-04T04:22:55.718Z,98.32
2023-04-04T04:25:23.050Z,98.96
2023-04-04T04:27:50.031Z,98.26
2023-04-04T04:30:16.942Z,97.96
2023-04-04T04:32:44.022Z,97.62
2023-04-04T04:35:10.920Z,97.84
2023-04-04T04:37:38.404Z,97.94
2023-04-04T04:40:06.518Z,98.05
2023-04-04T04:42:33.423Z,98.21
2023-04-04T04:45:00.528Z,98.61
2023-04-04T04:47:27.682Z,98.53
2023-04-04T04:49:54.626Z,99.76
2023-04-04T04:52:22.713Z,98.29
2023-04-04T04:54:50.960Z,97.99
2023-04-04T04:57:18.694Z,98.47
2023-04-04T04:59:45.688Z,97.58
2023-04-04T05:02:12.578Z,97.74
2023-04-04T05:04:41.229Z,98.25
2023-04-04T05:07:08.356Z,97.62
2023-04-04T05:09:35.735Z,99.79
2023-04-04T05:12:04.159Z,99.87
2023-04-04T05:14:31.221Z,99.96
2023-04-04T05:16:58.179Z,99.91
2023-04-04T05:19:25.124Z,100.00
2023-04-04T05:21:52.202Z,99.91
2023-04-04T05:24:22.835Z,99.02
2023-04-04T05:26:49.872Z,98.36
2023-04-04T05:29:16.958Z,99.83
2023-04-04T05:31:43.897Z,99.87
2023-04-04T05:34:10.907Z,100.00
2023-04-04T05:36:37.898Z,99.24
2023-04-04T05:39:04.986Z,98.83
2023-04-04T05:41:32.234Z,98.85
2023-04-04T05:43:59.660Z,99.10
2023-04-04T05:46:26.995Z,97.79
2023-04-04T05:48:53.964Z,97.50
2023-04-04T05:51:21.045Z,97.88
2023-04-04T05:53:49.118Z,97.03
2023-04-04T05:56:16.644Z,94.83
2023-04-04T05:58:45.078Z,93.23
2023-04-04T06:01:12.564Z,92.24
2023-04-04T06:03:39.763Z,91.86
2023-04-04T06:06:07.491Z,92.26
2023-04-04T06:08:50.303Z,91.90
2023-04-04T06:11:22.495Z,93.26
2023-04-04T06:13:51.130Z,92.51
2023-04-04T06:16:18.068Z,91.65
2023-04-04T06:18:45.024Z,89.76
2023-04-04T06:21:13.226Z,89.65
2023-04-04T06:23:40.918Z,90.19
2023-04-04T06:26:08.386Z,89.70
2023-04-04T06:28:35.415Z,89.78
2023-04-04T06:31:07.389Z,88.79
2023-04-04T06:33:34.338Z,86.95
2023-04-04T06:36:01.364Z,86.40
2023-04-04T06:38:29.405Z,83.65
2023-04-04T06:40:56.355Z,82.91
2023-04-04T06:43:24.042Z,84.87
2023-04-04T06:45:51.422Z,82.67
2023-04-04T06:48:18.715Z,80.55
2023-04-04T06:50:46.172Z,80.71
2023-04-04T06:53:14.493Z,80.20
2023-04-04T06:55:41.660Z,79.02
2023-04-04T06:58:08.821Z,77.85
2023-04-04T07:00:36.123Z,77.74
2023-04-04T07:03:03.104Z,74.56
2023-04-04T07:05:32.200Z,74.76
2023-04-04T07:07:59.241Z,74.59
2023-04-04T07:10:27.147Z,73.09
2023-04-04T07:12:54.170Z,71.80
2023-04-04T07:15:21.193Z,71.40
2023-04-04T07:17:48.243Z,70.12
2023-04-04T07:20:15.646Z,70.11
2023-04-04T07:22:44.360Z,69.53
2023-04-04T07:25:13.205Z,69.29
2023-04-04T07:27:43.186Z,69.11
2023-04-04T07:30:11.172Z,67.11
2023-04-04T07:32:38.356Z,67.78
2023-04-04T07:35:09.709Z,67.43
2023-04-04T07:37:38.180Z,67.78
2023-04-04T07:40:08.737Z,65.77
2023-04-04T07:42:35.900Z,66.50
2023-04-04T07:45:03.070Z,65.46
2023-04-04T07:47:30.125Z,63.55
2023-04-04T07:49:57.114Z,62.95
2023-04-04T07:52:24.113Z,63.95
2023-04-04T07:54:52.359Z,64.95
2023-04-04T07:57:19.243Z,64.84
2023-04-04T07:59:46.206Z,64.85
2023-04-04T08:02:13.409Z,65.48
2023-04-04T08:04:40.518Z,65.80
2023-04-04T08:07:07.484Z,65.51
2023-04-04T08:09:36.311Z,65.00
2023-04-04T08:12:06.446Z,63.23
2023-04-04T08:14:33.820Z,63.20
2023-04-04T08:17:01.403Z,63.83
2023-04-04T08:19:28.327Z,64.19
2023-04-04T08:21:55.813Z,61.08
2023-04-04T08:24:22.889Z,60.15
2023-04-04T08:26:58.201Z,59.42
2023-04-04T08:29:32.787Z,60.29
2023-04-04T08:32:00.612Z,60.59
2023-04-04T08:34:28.512Z,59.96
2023-04-04T08:36:56.030Z,58.59
2023-04-04T08:39:22.923Z,59.73
2023-04-04T08:42:02.982Z,58.24
2023-04-04T08:44:31.552Z,59.37
2023-04-04T08:47:05.662Z,57.39
2023-04-04T08:49:38.307Z,59.80
2023-04-04T08:52:07.456Z,58.10
2023-04-04T08:54:35.956Z,59.58
2023-04-04T08:57:04.098Z,59.12
2023-04-04T08:59:31.641Z,57.78
2023-04-04T09:02:15.768Z,58.50
2023-04-04T09:04:51.380Z,59.55
2023-04-04T09:07:28.263Z,59.30
2023-04-04T09:09:55.889Z,56.77
2023-04-04T09:12:23.549Z,57.86
2023-04-04T09:14:52.231Z,58.67
2023-04-04T09:17:19.418Z,56.55
2023-04-04T09:19:46.322Z,58.01
2023-04-04T09:22:17.342Z,57.33
2023-04-04T09:24:48.406Z,60.24
2023-04-04T09:27:16.472Z,57.67
2023-04-04T09:29:43.398Z,56.75
2023-04-04T09:32:16.015Z,56.98
2023-04-04T09:34:45.333Z,55.17
2023-04-04T09:37:17.131Z,55.21
2023-04-04T09:39:44.858Z,56.68
2023-04-04T09:42:12.435Z,56.70
2023-04-04T09:44:39.665Z,56.20
2023-04-04T09:47:31.517Z,53.61
2023-04-04T09:50:03.930Z,53.33
2023-04-04T09:52:37.639Z,54.02
2023-04-04T09:55:06.680Z,54.87
2023-04-04T09:57:39.421Z,55.18
2023-04-04T10:00:09.334Z,57.08
2023-04-04T10:02:47.023Z,54.17
2023-04-04T10:05:14.811Z,54.47
2023-04-04T10:07:43.811Z,54.91
2023-04-04T10:10:11.133Z,56.60
2023-04-04T10:12:38.839Z,53.87
2023-04-04T10:15:06.570Z,54.22
2023-04-04T10:17:41.812Z,53.44
2023-04-04T10:20:10.435Z,55.33
2023-04-04T10:22:38.957Z,54.26
2023-04-04T10:25:07.890Z,52.81
2023-04-04T10:27:35.161Z,55.53
2023-04-04T10:30:03.322Z,54.03
2023-04-04T10:33:02.637Z,53.36
2023-04-04T10:35:31.379Z,54.22
2023-04-04T10:38:03.446Z,54.98
2023-04-04T10:40:40.351Z,55.82
2023-04-04T10:43:07.797Z,54.60
2023-04-04T10:45:38.727Z,52.95
2023-04-04T10:48:10.537Z,54.38
2023-04-04T10:50:39.371Z,56.18
2023-04-04T10:53:08.141Z,54.91
2023-04-04T10:55:38.613Z,54.94
2023-04-04T10:58:08.380Z,54.16
2023-04-04T11:00:51.886Z,53.93
2023-04-04T11:03:19.009Z,55.20
2023-04-04T11:05:49.170Z,54.02
2023-04-04T11:08:27.877Z,54.59
2023-04-04T11:10:57.337Z,57.91
2023-04-04T11:13:35.610Z,54.92
2023-04-04T11:16:16.306Z,53.36
2023-04-04T11:18:43.774Z,53.32
2023-04-04T11:21:24.704Z,52.13
2023-04-04T11:23:54.587Z,55.53
2023-04-04T11:26:32.918Z,55.46
2023-04-04T11:29:02.853Z,56.71
2023-04-04T11:31:40.644Z,54.93
2023-04-04T11:34:13.178Z,52.11
2023-04-04T11:36:40.738Z,54.48
2023-04-04T11:39:31.039Z,52.50
2023-04-04T11:42:14.081Z,55.25
2023-04-04T11:44:51.168Z,53.67
2023-04-04T11:47:24.338Z,54.46
2023-04-04T11:49:53.719Z,52.43
2023-04-04T11:52:21.262Z,54.34
2023-04-04T11:54:49.121Z,55.29
2023-04-04T11:57:21.068Z,52.33
2023-04-04T11:59:50.531Z,55.85
2023-04-04T12:02:27.553Z,53.80
2023-04-04T12:04:55.438Z,51.79
2023-04-04T12:07:27.259Z,52.66
2023-04-04T12:09:56.193Z,53.56
2023-04-04T12:12:24.444Z,52.73
2023-04-04T12:14:56.328Z,55.84
2023-04-04T12:17:30.379Z,51.55
2023-04-04T12:19:57.764Z,53.74
2023-04-04T12:22:24.985Z,52.91
2023-04-04T12:24:52.006Z,51.90
2023-04-04T12:27:18.991Z,56.65
2023-04-04T12:29:47.580Z,50.39
2023-04-04T12:32:15.155Z,50.70
2023-04-04T12:34:48.963Z,50.40
2023-04-04T12:37:19.487Z,50.96
2023-04-04T12:39:51.120Z,50.57
2023-04-04T12:42:25.909Z,52.23
2023-04-04T12:44:54.186Z,53.45
2023-04-04T12:47:24.082Z,51.26
2023-04-04T12:49:56.425Z,51.49
2023-04-04T12:52:32.393Z,54.33
2023-04-04T12:55:10.217Z,50.97
2023-04-04T12:57:39.987Z,50.08
2023-04-04T13:00:09.173Z,50.23
2023-04-04T13:02:38.557Z,50.85
2023-04-04T13:05:07.451Z,52.13
2023-04-04T13:07:43.264Z,51.58
2023-04-04T13:10:17.349Z,51.92
2023-04-04T13:13:00.336Z,49.50
2023-04-04T13:15:51.415Z,50.15
2023-04-04T13:18:25.012Z,50.21
2023-04-04T13:20:53.928Z,50.67
2023-04-04T13:23:22.100Z,50.68
2023-04-04T13:25:49.166Z,49.58
2023-04-04T13:28:16.209Z,50.36
2023-04-04T13:30:49.692Z,52.06
2023-04-04T13:33:22.231Z,50.54
2023-04-04T13:35:51.082Z,51.83
2023-04-04T13:38:18.189Z,51.76
2023-04-04T13:40:45.657Z,52.49
2023-04-04T13:43:14.970Z,49.92
2023-04-04T13:45:43.321Z,51.26
2023-04-04T13:48:11.611Z,52.44
2023-04-04T13:50:43.466Z,49.06
2023-04-04T13:53:11.292Z,50.09
2023-04-04T13:55:43.947Z,50.03
2023-04-04T13:58:20.494Z,50.33
2023-04-04T14:00:49.008Z,51.95
2023-04-04T14:03:17.910Z,51.31
2023-04-04T14:05:45.141Z,51.29
2023-04-04T14:08:12.184Z,51.52
2023-04-04T14:10:39.116Z,50.46
2023-04-04T14:13:06.257Z,52.53
2023-04-04T14:15:33.860Z,53.07
2023-04-04T14:18:00.837Z,52.05
2023-04-04T14:20:27.892Z,51.53
2023-04-04T14:22:54.889Z,51.78
2023-04-04T14:25:22.387Z,50.92
2023-04-04T14:27:49.560Z,50.70
2023-04-04T14:30:16.691Z,52.11
2023-04-04T14:32:43.853Z,50.55
2023-04-04T14:35:12.763Z,51.01
2023-04-04T14:37:39.625Z,53.09
2023-04-04T14:40:07.379Z,50.32
2023-04-04T14:42:34.296Z,52.68
2023-04-04T14:45:05.004Z,51.65
2023-04-04T14:47:31.916Z,50.84
2023-04-04T14:49:59.059Z,50.71
2023-04-04T14:52:26.138Z,50.16
2023-04-04T14:54:53.039Z,49.16
2023-04-04T14:57:20.164Z,52.14
2023-04-04T14:59:48.046Z,50.70
2023-04-04T15:02:14.999Z,53.08
2023-04-04T15:04:42.842Z,50.75
2023-04-04T15:07:09.960Z,50.18
2023-04-04T15:09:36.952Z,50.99
2023-04-04T15:12:04.047Z,52.02
2023-04-04T15:14:31.313Z,50.27
2023-04-04T15:16:58.448Z,51.70
2023-04-04T15:19:25.536Z,51.75
2023-04-04T15:21:53.277Z,52.76
2023-04-04T15:24:20.308Z,50.73
2023-04-04T15:26:47.237Z,51.27
2023-04-04T15:29:15.635Z,48.00
2023-04-04T15:31:42.875Z,50.88
2023-04-04T15:34:09.850Z,52.32
2023-04-04T15:36:36.776Z,51.33
2023-04-04T15:39:03.875Z,51.56
2023-04-04T15:41:31.206Z,49.90
2023-04-04T15:43:58.674Z,47.77
2023-04-04T15:46:25.830Z,49.93
2023-04-04T15:48:52.920Z,49.91
2023-04-04T15:51:21.469Z,49.88
2023-04-04T15:53:49.190Z,48.82
2023-04-04T15:56:16.150Z,48.95
2023-04-04T15:58:43.182Z,50.98
2023-04-04T16:01:10.459Z,49.52
2023-04-04T16:03:38.806Z,50.20
2023-04-04T16:06:10.155Z,50.87
2023-04-04T16:08:37.152Z,49.38
2023-04-04T16:11:04.309Z,50.01
2023-04-04T16:13:31.237Z,52.69
2023-04-04T16:15:58.255Z,50.75
2023-04-04T16:18:25.678Z,51.12
2023-04-04T16:20:52.545Z,51.10
2023-04-04T16:23:19.448Z,49.96
2023-04-04T16:25:50.787Z,51.18
2023-04-04T16:28:17.740Z,51.19
2023-04-04T16:30:44.698Z,51.21
2023-04-04T16:33:11.707Z,49.14
2023-04-04T16:35:39.746Z,48.56
2023-04-04T16:38:06.971Z,48.69
2023-04-04T16:40:34.707Z,49.60
2023-04-04T16:43:01.978Z,49.76
2023-04-04T16:45:29.038Z,50.60
2023-04-04T16:47:56.010Z,50.23
2023-04-04T16:50:22.989Z,50.54
2023-04-04T16:52:49.944Z,53.07
2023-04-04T16:55:17.160Z,53.31
2023-04-04T16:57:44.521Z,53.03
2023-04-04T17:00:14.163Z,54.51
2023-04-04T17:02:45.826Z,52.33
2023-04-04T17:05:16.321Z,52.80
2023-04-04T17:07:43.258Z,52.20
2023-04-04T17:10:11.568Z,52.91
2023-04-04T17:12:40.276Z,53.92
2023-04-04T17:15:08.187Z,55.65
2023-04-04T17:17:35.656Z,53.80
2023-04-04T17:20:02.930Z,52.14
2023-04-04T17:22:31.433Z,52.94
2023-04-04T17:24:58.563Z,53.97
2023-04-04T17:27:25.904Z,53.48
2023-04-04T17:29:52.847Z,52.57
2023-04-04T17:32:19.815Z,53.60
2023-04-04T17:34:46.886Z,54.98
2023-04-04T17:37:13.863Z,54.60
2023-04-04T17:39:44.057Z,54.43
2023-04-04T17:42:11.658Z,54.96
2023-04-04T17:44:38.795Z,55.19
2023-04-04T17:47:06.698Z,54.31
2023-04-04T17:49:33.677Z,53.88
2023-04-04T17:52:02.019Z,53.41
2023-04-04T17:54:29.716Z,53.75
2023-04-04T17:56:57.651Z,53.34
2023-04-04T17:59:24.826Z,54.06
2023-04-04T18:01:51.896Z,53.90
2023-04-04T18:04:19.387Z,54.96
2023-04-04T18:06:46.402Z,53.51
2023-04-04T18:09:13.436Z,54.00
2023-04-04T18:11:41.361Z,54.16
2023-04-04T18:14:08.781Z,53.65
2023-04-04T18:16:39.670Z,53.51
2023-04-04T18:19:09.631Z,54.14
2023-04-04T18:21:38.074Z,54.27
2023-04-04T18:24:07.868Z,54.38
2023-04-04T18:26:34.951Z,55.06
2023-04-04T18:29:01.834Z,54.90
2023-04-04T18:31:28.811Z,54.65
2023-04-04T18:33:56.825Z,55.30
2023-04-04T18:36:23.815Z,55.28
2023-04-04T18:38:51.164Z,54.98
2023-04-04T18:41:18.087Z,55.37
2023-04-04T18:43:45.347Z,55.48
2023-04-04T18:46:13.027Z,56.20
2023-04-04T18:48:40.121Z,55.34
2023-04-04T18:51:07.993Z,55.81
2023-04-04T18:53:34.878Z,55.97
2023-04-04T18:56:01.813Z,56.74
2023-04-04T18:58:28.752Z,56.49
2023-04-04T19:00:58.390Z,56.91
2023-04-04T19:03:26.586Z,56.79
2023-04-04T19:05:55.654Z,57.34
2023-04-04T19:08:24.120Z,57.51
2023-04-04T19:10:52.385Z,57.71
2023-04-04T19:13:19.328Z,57.73
2023-04-04T19:15:46.900Z,58.01
2023-04-04T19:18:13.802Z,58.35
2023-04-04T19:20:42.264Z,58.71
2023-04-04T19:23:10.267Z,59.52
2023-04-04T19:25:37.277Z,59.62
2023-04-04T19:28:04.552Z,61.40
2023-04-04T19:30:49.919Z,62.49
2023-04-04T19:33:21.320Z,64.90
2023-04-04T19:35:55.856Z,66.56
2023-04-04T19:38:33.030Z,67.99
2023-04-04T19:41:02.701Z,70.46
2023-04-04T19:43:30.909Z,71.48
2023-04-04T19:46:01.247Z,72.18
2023-04-04T19:48:50.950Z,71.33
2023-04-04T19:51:17.837Z,71.49
2023-04-04T19:53:47.025Z,72.18
2023-04-04T19:56:16.354Z,71.74
2023-04-04T19:58:44.021Z,71.80
2023-04-04T20:01:14.849Z,71.92
2023-04-04T20:03:42.064Z,72.42
2023-04-04T20:06:31.383Z,74.26
2023-04-04T20:09:39.883Z,74.42
2023-04-04T20:12:09.318Z,74.08
2023-04-04T20:14:36.596Z,73.98
2023-04-04T20:17:04.634Z,74.87
2023-04-04T20:19:35.220Z,76.15
2023-04-04T20:22:02.394Z,77.08
2023-04-04T20:24:30.152Z,77.11
2023-04-04T20:27:00.210Z,76.82
2023-04-04T20:29:31.994Z,76.63
2023-04-04T20:32:01.056Z,76.50
2023-04-04T20:34:46.388Z,76.89
2023-04-04T20:37:14.308Z,78.00
2023-04-04T20:39:53.724Z,78.23
2023-04-04T20:42:41.532Z,78.27
2023-04-04T20:45:27.997Z,78.62
2023-04-04T20:48:01.550Z,79.57
2023-04-04T20:50:28.499Z,79.47
2023-04-04T20:53:03.562Z,78.76
2023-04-04T20:55:33.509Z,79.38
2023-04-04T20:58:21.881Z,79.38
2023-04-04T21:00:48.811Z,78.73
2023-04-04T21:03:35.825Z,78.84
2023-04-04T21:06:10.641Z,79.67
2023-04-04T21:08:41.393Z,79.76
2023-04-04T21:11:09.769Z,78.96
2023-04-04T21:13:42.147Z,79.50
2023-04-04T21:16:13.567Z,79.02
2023-04-04T21:18:41.670Z,77.71
2023-04-04T21:21:13.815Z,78.20
2023-04-04T21:23:56.649Z,77.96
2023-04-04T21:26:28.511Z,77.54
2023-04-04T21:28:58.234Z,78.37
2023-04-04T21:31:30.056Z,78.17
2023-04-04T21:33:58.425Z,78.26
2023-04-04T21:36:31.567Z,78.20
2023-04-04T21:39:07.150Z,77.31
2023-04-04T21:41:35.481Z,76.66
2023-04-04T21:44:06.202Z,77.05
2023-04-04T21:46:37.230Z,76.78
2023-04-04T21:49:06.050Z,77.90
2023-04-04T21:51:33.641Z,78.29
2023-04-04T21:54:01.425Z,78.65
2023-04-04T21:56:31.477Z,78.77
2023-04-04T21:59:04.794Z,78.25
2023-04-04T22:01:32.080Z,78.23
2023-04-04T22:03:59.965Z,77.68
2023-04-04T22:06:28.192Z,77.89
2023-04-04T22:08:57.618Z,77.91
2023-04-04T22:11:27.171Z,79.43
2023-04-04T22:14:04.001Z,79.48
2023-04-04T22:16:32.102Z,79.45
2023-04-04T22:19:01.052Z,79.11
2023-04-04T22:21:28.462Z,79.28
2023-04-04T22:24:02.119Z,80.05
2023-04-04T22:26:32.127Z,81.07
2023-04-04T22:29:04.214Z,81.08
2023-04-04T22:31:34.350Z,81.43
2023-04-04T22:34:03.142Z,81.71
2023-04-04T22:36:30.648Z,81.25
2023-04-04T22:38:58.117Z,81.39
2023-04-04T22:41:29.312Z,81.15
2023-04-04T22:43:57.513Z,81.68
2023-04-04T22:46:26.493Z,81.17
2023-04-04T22:49:13.318Z,80.83
2023-04-04T22:51:44.076Z,80.89
2023-04-04T22:54:16.404Z,81.87
2023-04-04T22:56:43.828Z,81.94
2023-04-04T22:59:11.200Z,82.67
2023-04-04T23:01:38.608Z,83.92
2023-04-04T23:04:05.760Z,83.18
2023-04-04T23:06:32.774Z,82.70
2023-04-04T23:08:59.826Z,83.04
2023-04-04T23:11:27.375Z,82.91
2023-04-04T23:13:57.048Z,83.89
2023-04-04T23:16:26.039Z,83.10
2023-04-04T23:18:53.159Z,82.22
2023-04-04T23:21:20.059Z,82.21
2023-04-04T23:23:46.992Z,82.70
2023-04-04T23:26:13.900Z,83.79
2023-04-04T23:28:40.780Z,85.53
2023-04-04T23:31:07.719Z,85.49
2023-04-04T23:33:34.628Z,86.26
2023-04-04T23:36:01.588Z,87.78
2023-04-04T23:38:28.585Z,89.06
2023-04-04T23:40:55.466Z,87.99
2023-04-04T23:43:24.411Z,87.07
2023-04-04T23:45:52.205Z,86.84
2023-04-04T23:48:19.342Z,86.12
2023-04-04T23:50:46.296Z,86.95
2023-04-04T23:53:13.253Z,86.82
2023-04-04T23:55:40.303Z,85.33
2023-04-04T23:58:07.159Z,84.88
